MEA427 OMDB-OLBA
Flight info
| Callsign | MEA427 |
|---|---|
| Flight time | 3h 48m |
| Altitude | 35000 |
| Route | ANVIX DCT GIDIS DCT NABUN DCT RIBOT DCT SITER M440 KSA T503 BONIS DCT OTILA DCT SOKAN L768 FIRAS R655 LEBOR |
| Aircraft | A21N/M-SDE2E3FGHIJ1RWXY/LB1 |
Departure
| Time | 2026-04-22 09:02 |
|---|---|
| Airport | Dubai International Airport (OMDB) |
Arrival
| Time | 2026-04-22 12:51 |
|---|---|
| Airport | Beirut Rafic Hariri International Airport (OLBA) |
| Time | Latitude | Longitude | Altitude | Speed | Heading |
|---|---|---|---|---|---|
| 2026-04-22 08:10 | 25.25663 | 55.34806 | 32 ft | 0 kts | 301° |
| 2026-04-22 08:49 | 25.25657 | 55.34817 | 27 ft | 3 kts | 301° |
| 2026-04-22 08:49 | 25.25646 | 55.34836 | 26 ft | 2 kts | 301° |
| 2026-04-22 08:50 | 25.25635 | 55.34855 | 27 ft | 3 kts | 302° |
| 2026-04-22 08:50 | 25.25627 | 55.34871 | 27 ft | 3 kts | 306° |
| 2026-04-22 08:50 | 25.25614 | 55.34884 | 27 ft | 3 kts | 342° |
| 2026-04-22 08:50 | 25.25597 | 55.34885 | 27 ft | 3 kts | 21° |
| 2026-04-22 08:51 | 25.25582 | 55.34877 | 27 ft | 1 kts | 29° |
| 2026-04-22 08:51 | 25.25578 | 55.34875 | 27 ft | 0 kts | 29° |
| 2026-04-22 08:53 | 25.25579 | 55.34875 | 27 ft | 1 kts | 29° |
| 2026-04-22 08:53 | 25.25595 | 55.34885 | 27 ft | 5 kts | 29° |
| 2026-04-22 08:54 | 25.25637 | 55.34911 | 27 ft | 9 kts | 29° |
| 2026-04-22 08:54 | 25.25701 | 55.34953 | 27 ft | 12 kts | 39° |
| 2026-04-22 08:54 | 25.25705 | 55.35035 | 27 ft | 10 kts | 122° |
| 2026-04-22 08:54 | 25.25670 | 55.35108 | 27 ft | 12 kts | 103° |
| 2026-04-22 08:55 | 25.25712 | 55.35164 | 27 ft | 11 kts | 38° |
| 2026-04-22 08:55 | 25.25782 | 55.35217 | 27 ft | 13 kts | 29° |
| 2026-04-22 08:55 | 25.25869 | 55.35274 | 27 ft | 16 kts | 32° |
| 2026-04-22 08:55 | 25.25962 | 55.35352 | 27 ft | 18 kts | 43° |
| 2026-04-22 08:56 | 25.26008 | 55.35483 | 28 ft | 20 kts | 97° |
| 2026-04-22 08:56 | 25.25948 | 55.35630 | 28 ft | 22 kts | 124° |
| 2026-04-22 08:56 | 25.25865 | 55.35782 | 28 ft | 24 kts | 121° |
| 2026-04-22 08:56 | 25.25770 | 55.35942 | 29 ft | 25 kts | 123° |
| 2026-04-22 08:57 | 25.25683 | 55.36104 | 29 ft | 24 kts | 122° |
| 2026-04-22 08:57 | 25.25597 | 55.36250 | 29 ft | 22 kts | 122° |
| 2026-04-22 08:57 | 25.25522 | 55.36388 | 29 ft | 20 kts | 122° |
| 2026-04-22 08:57 | 25.25453 | 55.36513 | 30 ft | 19 kts | 122° |
| 2026-04-22 08:58 | 25.25378 | 55.36641 | 29 ft | 21 kts | 123° |
| 2026-04-22 08:58 | 25.25298 | 55.36785 | 29 ft | 23 kts | 120° |
| 2026-04-22 08:58 | 25.25211 | 55.36941 | 29 ft | 25 kts | 123° |
| 2026-04-22 08:58 | 25.25120 | 55.37101 | 30 ft | 24 kts | 121° |
| 2026-04-22 08:59 | 25.25041 | 55.37251 | 31 ft | 22 kts | 119° |
| 2026-04-22 08:59 | 25.24966 | 55.37391 | 31 ft | 22 kts | 125° |
| 2026-04-22 08:59 | 25.24880 | 55.37532 | 30 ft | 23 kts | 120° |
| 2026-04-22 08:59 | 25.24792 | 55.37691 | 30 ft | 25 kts | 122° |
| 2026-04-22 09:00 | 25.24712 | 55.37824 | 30 ft | 13 kts | 110° |
| 2026-04-22 09:00 | 25.24740 | 55.37883 | 30 ft | 0 kts | 33° |
| 2026-04-22 09:00 | 25.24741 | 55.37883 | 30 ft | 1 kts | 33° |
| 2026-04-22 09:01 | 25.24765 | 55.37901 | 32 ft | 8 kts | 33° |
| 2026-04-22 09:01 | 25.24829 | 55.37932 | 35 ft | 12 kts | 2° |
| 2026-04-22 09:01 | 25.24870 | 55.37907 | 35 ft | 0 kts | 300° |
| 2026-04-22 09:01 | 25.24870 | 55.37906 | 35 ft | 1 kts | 300° |
| 2026-04-22 09:02 | 25.24917 | 55.37824 | 36 ft | 42 kts | 297° |
| 2026-04-22 09:02 | 25.25227 | 55.37282 | 36 ft | 124 kts | 300° |
| 2026-04-22 09:02 | 25.25794 | 55.36260 | 40 ft | 182 kts | 303° |
| 2026-04-22 09:02 | 25.26430 | 55.35107 | 854 ft | 167 kts | 304° |
| 2026-04-22 09:03 | 25.27031 | 55.34055 | 1701 ft | 156 kts | 304° |
| 2026-04-22 09:03 | 25.27633 | 55.33078 | 2247 ft | 157 kts | 305° |
| 2026-04-22 09:03 | 25.28364 | 55.32034 | 2472 ft | 192 kts | 306° |
| 2026-04-22 09:03 | 25.29003 | 55.30692 | 2816 ft | 200 kts | 286° |
| 2026-04-22 09:04 | 25.29218 | 55.29140 | 3296 ft | 205 kts | 264° |
| 2026-04-22 09:04 | 25.28831 | 55.27674 | 3404 ft | 198 kts | 242° |
| 2026-04-22 09:04 | 25.28166 | 55.26190 | 3473 ft | 231 kts | 242° |
| 2026-04-22 09:04 | 25.27474 | 55.24586 | 3519 ft | 230 kts | 242° |
| 2026-04-22 09:05 | 25.26792 | 55.22986 | 3499 ft | 229 kts | 242° |
| 2026-04-22 09:05 | 25.26115 | 55.21398 | 3479 ft | 228 kts | 242° |
| 2026-04-22 09:05 | 25.25434 | 55.19795 | 3630 ft | 236 kts | 242° |
| 2026-04-22 09:05 | 25.24671 | 55.18168 | 4138 ft | 238 kts | 234° |
| 2026-04-22 09:06 | 25.23454 | 55.16966 | 4356 ft | 236 kts | 205° |
| 2026-04-22 09:06 | 25.21778 | 55.16616 | 4755 ft | 258 kts | 182° |
| 2026-04-22 09:06 | 25.19971 | 55.16826 | 5559 ft | 266 kts | 168° |
| 2026-04-22 09:06 | 25.18293 | 55.17736 | 6383 ft | 276 kts | 143° |
| 2026-04-22 09:07 | 25.17138 | 55.19424 | 7166 ft | 285 kts | 122° |
| 2026-04-22 09:07 | 25.16233 | 55.21421 | 8002 ft | 289 kts | 120° |
| 2026-04-22 09:07 | 25.15331 | 55.23429 | 8829 ft | 294 kts | 120° |
| 2026-04-22 09:07 | 25.14400 | 55.25455 | 9645 ft | 298 kts | 120° |
| 2026-04-22 09:08 | 25.13439 | 55.27506 | 10377 ft | 303 kts | 120° |
| 2026-04-22 09:08 | 25.12466 | 55.29552 | 11119 ft | 307 kts | 120° |
| 2026-04-22 09:08 | 25.11461 | 55.31652 | 11876 ft | 312 kts | 120° |
| 2026-04-22 09:08 | 25.10467 | 55.33797 | 12635 ft | 317 kts | 117° |
| 2026-04-22 09:09 | 25.09539 | 55.36027 | 13419 ft | 322 kts | 116° |
| 2026-04-22 09:09 | 25.08613 | 55.38294 | 14134 ft | 327 kts | 115° |
| 2026-04-22 09:09 | 25.07675 | 55.40587 | 14862 ft | 330 kts | 115° |
| 2026-04-22 09:09 | 25.06729 | 55.42907 | 15622 ft | 332 kts | 115° |
| 2026-04-22 09:10 | 25.05821 | 55.45263 | 16342 ft | 336 kts | 114° |
| 2026-04-22 09:10 | 25.04912 | 55.47663 | 16998 ft | 342 kts | 114° |
| 2026-04-22 09:10 | 25.03986 | 55.50100 | 17697 ft | 347 kts | 114° |
| 2026-04-22 09:10 | 25.03044 | 55.52561 | 18369 ft | 350 kts | 114° |
| 2026-04-22 09:11 | 25.01826 | 55.54882 | 18950 ft | 352 kts | 132° |
| 2026-04-22 09:11 | 24.99963 | 55.56610 | 19540 ft | 351 kts | 153° |
| 2026-04-22 09:11 | 24.97692 | 55.57540 | 20128 ft | 349 kts | 172° |
| 2026-04-22 09:11 | 24.95279 | 55.57604 | 20703 ft | 347 kts | 191° |
| 2026-04-22 09:12 | 24.92991 | 55.56822 | 21287 ft | 346 kts | 209° |
| 2026-04-22 09:12 | 24.90991 | 55.55359 | 21896 ft | 346 kts | 220° |
| 2026-04-22 09:12 | 24.89099 | 55.53707 | 22532 ft | 348 kts | 221° |
| 2026-04-22 09:12 | 24.87192 | 55.52039 | 23153 ft | 351 kts | 220° |
| 2026-04-22 09:13 | 24.85261 | 55.50381 | 23694 ft | 354 kts | 220° |
| 2026-04-22 09:13 | 24.83298 | 55.48728 | 24223 ft | 356 kts | 220° |
| 2026-04-22 09:13 | 24.81318 | 55.47070 | 24740 ft | 359 kts | 220° |
| 2026-04-22 09:13 | 24.79325 | 55.45405 | 25263 ft | 361 kts | 220° |
| 2026-04-22 09:14 | 24.77318 | 55.43726 | 25771 ft | 363 kts | 220° |
| 2026-04-22 09:14 | 24.75305 | 55.42042 | 26266 ft | 365 kts | 220° |
| 2026-04-22 09:14 | 24.73275 | 55.40353 | 26766 ft | 367 kts | 220° |
| 2026-04-22 09:14 | 24.71227 | 55.38648 | 27233 ft | 370 kts | 220° |
| 2026-04-22 09:15 | 24.69172 | 55.36936 | 27702 ft | 372 kts | 220° |
| 2026-04-22 09:15 | 24.67104 | 55.35216 | 28154 ft | 374 kts | 220° |
| 2026-04-22 09:15 | 24.65019 | 55.33484 | 28599 ft | 377 kts | 220° |
| 2026-04-22 09:15 | 24.62944 | 55.31760 | 28938 ft | 382 kts | 220° |
| 2026-04-22 09:16 | 24.60777 | 55.29960 | 29250 ft | 387 kts | 220° |
| 2026-04-22 09:16 | 24.58639 | 55.28187 | 29875 ft | 383 kts | 220° |
| 2026-04-22 09:16 | 24.56527 | 55.26433 | 30394 ft | 381 kts | 221° |
| 2026-04-22 09:16 | 24.54444 | 55.24704 | 30790 ft | 379 kts | 221° |
| 2026-04-22 09:17 | 24.52338 | 55.22957 | 31181 ft | 379 kts | 221° |
| 2026-04-22 09:17 | 24.50239 | 55.21215 | 31587 ft | 379 kts | 221° |
| 2026-04-22 09:17 | 24.48141 | 55.19477 | 31999 ft | 377 kts | 222° |
| 2026-04-22 09:17 | 24.46047 | 55.17742 | 32346 ft | 376 kts | 222° |
| 2026-04-22 09:18 | 24.43955 | 55.16010 | 32657 ft | 377 kts | 222° |
| 2026-04-22 09:18 | 24.41863 | 55.14282 | 33048 ft | 375 kts | 222° |
| 2026-04-22 09:18 | 24.39771 | 55.12555 | 33299 ft | 377 kts | 222° |
| 2026-04-22 09:18 | 24.37676 | 55.10822 | 33538 ft | 379 kts | 223° |
| 2026-04-22 09:19 | 24.35571 | 55.09077 | 33752 ft | 381 kts | 223° |
| 2026-04-22 09:19 | 24.31260 | 55.05514 | 33788 ft | 396 kts | 222° |
| 2026-04-22 09:20 | 24.26800 | 55.01843 | 33832 ft | 403 kts | 222° |
| 2026-04-22 09:20 | 24.24556 | 54.99991 | 33989 ft | 405 kts | 223° |
| 2026-04-22 09:20 | 24.22301 | 54.98129 | 34200 ft | 407 kts | 223° |
| 2026-04-22 09:20 | 24.20034 | 54.96262 | 34417 ft | 408 kts | 223° |
| 2026-04-22 09:21 | 24.17759 | 54.94391 | 34630 ft | 410 kts | 223° |
| 2026-04-22 09:21 | 24.15476 | 54.92508 | 34767 ft | 413 kts | 223° |
| 2026-04-22 09:21 | 24.13159 | 54.90597 | 34783 ft | 420 kts | 223° |
| 2026-04-22 09:22 | 24.08412 | 54.86674 | 34769 ft | 432 kts | 225° |
| 2026-04-22 09:22 | 24.04472 | 54.81894 | 34754 ft | 418 kts | 244° |
| 2026-04-22 09:23 | 24.02150 | 54.76142 | 34749 ft | 412 kts | 253° |
| 2026-04-22 09:23 | 24.00083 | 54.70293 | 34745 ft | 412 kts | 253° |
| 2026-04-22 09:24 | 23.97990 | 54.64508 | 34746 ft | 411 kts | 252° |
| 2026-04-22 09:24 | 23.95880 | 54.58705 | 34748 ft | 409 kts | 252° |
| 2026-04-22 09:25 | 23.93798 | 54.52980 | 34737 ft | 404 kts | 252° |
| 2026-04-22 09:25 | 23.91715 | 54.47280 | 34741 ft | 404 kts | 253° |
| 2026-04-22 09:26 | 23.89634 | 54.41577 | 34748 ft | 404 kts | 252° |
| 2026-04-22 09:26 | 23.87552 | 54.35880 | 34744 ft | 403 kts | 253° |
| 2026-04-22 09:27 | 23.85464 | 54.30200 | 34743 ft | 403 kts | 253° |
| 2026-04-22 09:27 | 23.83388 | 54.24518 | 34745 ft | 402 kts | 253° |
| 2026-04-22 09:28 | 23.81308 | 54.18848 | 34746 ft | 402 kts | 253° |
| 2026-04-22 09:28 | 23.79224 | 54.13188 | 34739 ft | 402 kts | 253° |
| 2026-04-22 09:29 | 23.77493 | 54.08483 | 34739 ft | 402 kts | 253° |
| 2026-04-22 09:29 | 23.75406 | 54.02832 | 34742 ft | 401 kts | 253° |
| 2026-04-22 09:30 | 23.73322 | 53.97185 | 34746 ft | 401 kts | 253° |
| 2026-04-22 09:30 | 23.71246 | 53.91546 | 34749 ft | 401 kts | 253° |
| 2026-04-22 09:31 | 23.69160 | 53.85908 | 34748 ft | 400 kts | 253° |
| 2026-04-22 09:31 | 23.67072 | 53.80282 | 34748 ft | 400 kts | 253° |
| 2026-04-22 09:32 | 23.64993 | 53.74668 | 34752 ft | 399 kts | 253° |
| 2026-04-22 09:32 | 23.62906 | 53.69058 | 34747 ft | 399 kts | 253° |
| 2026-04-22 09:33 | 23.60826 | 53.63454 | 34751 ft | 399 kts | 253° |
| 2026-04-22 09:33 | 23.58742 | 53.57852 | 34753 ft | 398 kts | 253° |
| 2026-04-22 09:34 | 23.56651 | 53.52259 | 34750 ft | 398 kts | 253° |
| 2026-04-22 09:34 | 23.54567 | 53.46674 | 34753 ft | 398 kts | 253° |
| 2026-04-22 09:35 | 23.51434 | 53.38308 | 34757 ft | 397 kts | 253° |
| 2026-04-22 09:35 | 23.49346 | 53.32734 | 34753 ft | 397 kts | 253° |
| 2026-04-22 09:36 | 23.47263 | 53.27168 | 34749 ft | 397 kts | 253° |
| 2026-04-22 09:36 | 23.45182 | 53.21606 | 34756 ft | 396 kts | 253° |
| 2026-04-22 09:37 | 23.43092 | 53.16057 | 34753 ft | 396 kts | 253° |
| 2026-04-22 09:37 | 23.41021 | 53.10549 | 34755 ft | 396 kts | 253° |
| 2026-04-22 09:38 | 23.38934 | 53.05013 | 34760 ft | 395 kts | 253° |
| 2026-04-22 09:38 | 23.36842 | 52.99480 | 34757 ft | 395 kts | 253° |
| 2026-04-22 09:39 | 23.34753 | 52.93951 | 34755 ft | 395 kts | 253° |
| 2026-04-22 09:39 | 23.32668 | 52.88431 | 34755 ft | 395 kts | 253° |
| 2026-04-22 09:40 | 23.30575 | 52.82913 | 34756 ft | 394 kts | 253° |
| 2026-04-22 09:40 | 23.28485 | 52.77389 | 34755 ft | 394 kts | 252° |
| 2026-04-22 09:41 | 23.26394 | 52.71878 | 34755 ft | 394 kts | 253° |
| 2026-04-22 09:41 | 23.24294 | 52.66374 | 34754 ft | 394 kts | 252° |
| 2026-04-22 09:42 | 23.22207 | 52.60866 | 34755 ft | 394 kts | 253° |
| 2026-04-22 09:42 | 23.20106 | 52.55365 | 34758 ft | 394 kts | 253° |
| 2026-04-22 09:43 | 23.18016 | 52.49869 | 34752 ft | 393 kts | 252° |
| 2026-04-22 09:43 | 23.16076 | 52.44332 | 34757 ft | 389 kts | 259° |
| 2026-04-22 09:44 | 23.15615 | 52.38576 | 34753 ft | 382 kts | 276° |
| 2026-04-22 09:44 | 23.16891 | 52.32995 | 34758 ft | 381 kts | 288° |
| 2026-04-22 09:45 | 23.18628 | 52.27553 | 34752 ft | 381 kts | 288° |
| 2026-04-22 09:45 | 23.20330 | 52.22097 | 34763 ft | 381 kts | 288° |
| 2026-04-22 09:46 | 23.22022 | 52.16635 | 34762 ft | 381 kts | 287° |
| 2026-04-22 09:46 | 23.23699 | 52.11171 | 34761 ft | 381 kts | 287° |
| 2026-04-22 09:47 | 23.25379 | 52.05702 | 34764 ft | 381 kts | 287° |
| 2026-04-22 09:47 | 23.27069 | 52.00248 | 34769 ft | 381 kts | 287° |
| 2026-04-22 09:48 | 23.28746 | 51.94781 | 34761 ft | 381 kts | 287° |
| 2026-04-22 09:48 | 23.30431 | 51.89325 | 34775 ft | 381 kts | 287° |
| 2026-04-22 09:49 | 23.32119 | 51.83858 | 34778 ft | 384 kts | 287° |
| 2026-04-22 09:49 | 23.33808 | 51.78316 | 34778 ft | 386 kts | 287° |
| 2026-04-22 09:50 | 23.35496 | 51.72814 | 34778 ft | 386 kts | 287° |
| 2026-04-22 09:50 | 23.37191 | 51.67273 | 34784 ft | 386 kts | 287° |
| 2026-04-22 09:51 | 23.38877 | 51.61735 | 34780 ft | 385 kts | 287° |
| 2026-04-22 09:51 | 23.40565 | 51.56202 | 34790 ft | 385 kts | 287° |
| 2026-04-22 09:52 | 23.42242 | 51.50662 | 34789 ft | 385 kts | 287° |
| 2026-04-22 09:52 | 23.43919 | 51.45132 | 34785 ft | 385 kts | 287° |
| 2026-04-22 09:53 | 23.45600 | 51.39603 | 34788 ft | 384 kts | 287° |
| 2026-04-22 09:53 | 23.47269 | 51.34084 | 34788 ft | 384 kts | 287° |
| 2026-04-22 09:54 | 23.48941 | 51.28562 | 34785 ft | 384 kts | 287° |
| 2026-04-22 09:54 | 23.50610 | 51.23043 | 34790 ft | 383 kts | 287° |
| 2026-04-22 09:55 | 23.52268 | 51.17528 | 34792 ft | 383 kts | 287° |
| 2026-04-22 09:55 | 23.53929 | 51.12021 | 34790 ft | 383 kts | 287° |
| 2026-04-22 09:56 | 23.55585 | 51.06515 | 34795 ft | 382 kts | 287° |
| 2026-04-22 09:56 | 23.57236 | 51.01008 | 34794 ft | 382 kts | 287° |
| 2026-04-22 09:57 | 23.58889 | 50.95515 | 34795 ft | 382 kts | 287° |
| 2026-04-22 09:57 | 23.60535 | 50.90018 | 34796 ft | 381 kts | 287° |
| 2026-04-22 09:58 | 23.62179 | 50.84521 | 34796 ft | 381 kts | 286° |
| 2026-04-22 09:58 | 23.63816 | 50.79040 | 34799 ft | 380 kts | 286° |
| 2026-04-22 09:59 | 23.65450 | 50.73550 | 34798 ft | 380 kts | 286° |
| 2026-04-22 09:59 | 23.67083 | 50.68070 | 34799 ft | 380 kts | 286° |
| 2026-04-22 10:00 | 23.68718 | 50.62583 | 34797 ft | 380 kts | 286° |
| 2026-04-22 10:00 | 23.70343 | 50.57104 | 34798 ft | 379 kts | 286° |
| 2026-04-22 10:01 | 23.71960 | 50.51626 | 34805 ft | 379 kts | 286° |
| 2026-04-22 10:01 | 23.73583 | 50.46144 | 34804 ft | 379 kts | 286° |
| 2026-04-22 10:02 | 23.75200 | 50.40666 | 34802 ft | 379 kts | 286° |
| 2026-04-22 10:02 | 23.76823 | 50.35183 | 34806 ft | 379 kts | 286° |
| 2026-04-22 10:03 | 23.78430 | 50.29735 | 34808 ft | 379 kts | 286° |
| 2026-04-22 10:03 | 23.80044 | 50.24246 | 34809 ft | 380 kts | 286° |
| 2026-04-22 10:04 | 23.81662 | 50.18757 | 34806 ft | 380 kts | 286° |
| 2026-04-22 10:04 | 23.83272 | 50.13259 | 34806 ft | 380 kts | 286° |
| 2026-04-22 10:05 | 23.84888 | 50.07765 | 34809 ft | 380 kts | 286° |
| 2026-04-22 10:05 | 23.86496 | 50.02272 | 34809 ft | 380 kts | 286° |
| 2026-04-22 10:06 | 23.88098 | 49.96777 | 34806 ft | 380 kts | 286° |
| 2026-04-22 10:06 | 23.89708 | 49.91276 | 34810 ft | 380 kts | 286° |
| 2026-04-22 10:07 | 23.91313 | 49.85772 | 34812 ft | 380 kts | 286° |
| 2026-04-22 10:07 | 23.92913 | 49.80260 | 34817 ft | 380 kts | 285° |
| 2026-04-22 10:08 | 23.94515 | 49.74742 | 34810 ft | 381 kts | 286° |
| 2026-04-22 10:08 | 23.96120 | 49.69228 | 34811 ft | 381 kts | 286° |
| 2026-04-22 10:09 | 23.97727 | 49.63715 | 34810 ft | 381 kts | 286° |
| 2026-04-22 10:09 | 23.99327 | 49.58188 | 34815 ft | 381 kts | 286° |
| 2026-04-22 10:10 | 24.00927 | 49.52659 | 34818 ft | 381 kts | 286° |
| 2026-04-22 10:10 | 24.02522 | 49.47132 | 34821 ft | 381 kts | 285° |
| 2026-04-22 10:11 | 24.04117 | 49.41596 | 34823 ft | 381 kts | 286° |
| 2026-04-22 10:11 | 24.05710 | 49.36064 | 34825 ft | 382 kts | 286° |
| 2026-04-22 10:12 | 24.07303 | 49.30525 | 34828 ft | 381 kts | 285° |
| 2026-04-22 10:12 | 24.08888 | 49.24982 | 34834 ft | 382 kts | 285° |
| 2026-04-22 10:13 | 24.10476 | 49.19439 | 34835 ft | 382 kts | 285° |
| 2026-04-22 10:13 | 24.12063 | 49.13885 | 34838 ft | 382 kts | 285° |
| 2026-04-22 10:14 | 24.13628 | 49.08370 | 34837 ft | 382 kts | 285° |
| 2026-04-22 10:14 | 24.15210 | 49.02813 | 34841 ft | 382 kts | 285° |
| 2026-04-22 10:15 | 24.16789 | 48.97250 | 34844 ft | 382 kts | 285° |
| 2026-04-22 10:15 | 24.18115 | 48.92589 | 34840 ft | 383 kts | 285° |
| 2026-04-22 10:16 | 24.19873 | 48.87079 | 34839 ft | 384 kts | 288° |
| 2026-04-22 10:16 | 24.21709 | 48.81595 | 34843 ft | 384 kts | 288° |
| 2026-04-22 10:17 | 24.23534 | 48.76096 | 34846 ft | 384 kts | 287° |
| 2026-04-22 10:17 | 24.25356 | 48.70601 | 34845 ft | 384 kts | 288° |
| 2026-04-22 10:18 | 24.27187 | 48.65105 | 34845 ft | 384 kts | 288° |
| 2026-04-22 10:18 | 24.28992 | 48.59650 | 34851 ft | 383 kts | 287° |
| 2026-04-22 10:19 | 24.30805 | 48.54152 | 34858 ft | 384 kts | 287° |
| 2026-04-22 10:19 | 24.32612 | 48.48654 | 34859 ft | 383 kts | 287° |
| 2026-04-22 10:20 | 24.34429 | 48.43157 | 34860 ft | 383 kts | 287° |
| 2026-04-22 10:20 | 24.36257 | 48.37673 | 34868 ft | 383 kts | 287° |
| 2026-04-22 10:21 | 24.38061 | 48.32186 | 34865 ft | 382 kts | 287° |
| 2026-04-22 10:21 | 24.39860 | 48.26707 | 34871 ft | 382 kts | 287° |
| 2026-04-22 10:22 | 24.41688 | 48.21228 | 34872 ft | 382 kts | 288° |
| 2026-04-22 10:22 | 24.43515 | 48.15752 | 34879 ft | 382 kts | 287° |
| 2026-04-22 10:23 | 24.45318 | 48.10270 | 34881 ft | 382 kts | 287° |
| 2026-04-22 10:23 | 24.47124 | 48.04777 | 34880 ft | 382 kts | 287° |
| 2026-04-22 10:24 | 24.48923 | 47.99287 | 34886 ft | 383 kts | 287° |
| 2026-04-22 10:24 | 24.50718 | 47.93787 | 34884 ft | 383 kts | 287° |
| 2026-04-22 10:25 | 24.52517 | 47.88283 | 34893 ft | 383 kts | 287° |
| 2026-04-22 10:25 | 24.54306 | 47.82776 | 34897 ft | 383 kts | 287° |
| 2026-04-22 10:26 | 24.56216 | 47.77295 | 34905 ft | 385 kts | 289° |
| 2026-04-22 10:26 | 24.58296 | 47.71879 | 34908 ft | 385 kts | 290° |
| 2026-04-22 10:27 | 24.60374 | 47.66460 | 34908 ft | 385 kts | 289° |
| 2026-04-22 10:27 | 24.62439 | 47.61038 | 34913 ft | 385 kts | 289° |
| 2026-04-22 10:28 | 24.64508 | 47.55611 | 34909 ft | 385 kts | 289° |
| 2026-04-22 10:28 | 24.66571 | 47.50182 | 34921 ft | 385 kts | 289° |
| 2026-04-22 10:29 | 24.68635 | 47.44760 | 34923 ft | 385 kts | 289° |
| 2026-04-22 10:29 | 24.70710 | 47.39342 | 34934 ft | 384 kts | 289° |
| 2026-04-22 10:30 | 24.72774 | 47.33919 | 34933 ft | 384 kts | 289° |
| 2026-04-22 10:30 | 24.74836 | 47.28504 | 34935 ft | 384 kts | 289° |
| 2026-04-22 10:31 | 24.76880 | 47.23077 | 34937 ft | 384 kts | 289° |
| 2026-04-22 10:31 | 24.78915 | 47.17655 | 34940 ft | 383 kts | 289° |
| 2026-04-22 10:32 | 24.80964 | 47.12240 | 34936 ft | 383 kts | 289° |
| 2026-04-22 10:32 | 24.83004 | 47.06818 | 34946 ft | 384 kts | 289° |
| 2026-04-22 10:33 | 24.85052 | 47.01391 | 34953 ft | 384 kts | 289° |
| 2026-04-22 10:33 | 24.87117 | 46.95975 | 34960 ft | 384 kts | 289° |
| 2026-04-22 10:34 | 24.89166 | 46.90551 | 34961 ft | 384 kts | 289° |
| 2026-04-22 10:34 | 24.91204 | 46.85123 | 34965 ft | 384 kts | 289° |
| 2026-04-22 10:35 | 24.93241 | 46.79689 | 34963 ft | 384 kts | 289° |
| 2026-04-22 10:35 | 24.95279 | 46.74240 | 34965 ft | 384 kts | 289° |
| 2026-04-22 10:36 | 24.97356 | 46.68854 | 34954 ft | 387 kts | 293° |
| 2026-04-22 10:36 | 25.00704 | 46.64085 | 34970 ft | 399 kts | 310° |
| 2026-04-22 10:37 | 25.06847 | 46.57887 | 34974 ft | 401 kts | 310° |
| 2026-04-22 10:38 | 25.10955 | 46.53708 | 34975 ft | 402 kts | 310° |
| 2026-04-22 10:38 | 25.15057 | 46.49517 | 34978 ft | 402 kts | 310° |
| 2026-04-22 10:39 | 25.19166 | 46.45308 | 34977 ft | 403 kts | 310° |
| 2026-04-22 10:39 | 25.23267 | 46.41110 | 35145 ft | 402 kts | 310° |
| 2026-04-22 10:39 | 25.25311 | 46.39018 | 35571 ft | 398 kts | 310° |
| 2026-04-22 10:40 | 25.27334 | 46.36944 | 35886 ft | 397 kts | 310° |
| 2026-04-22 10:40 | 25.31360 | 46.32811 | 35989 ft | 394 kts | 309° |
| 2026-04-22 10:41 | 25.35365 | 46.28695 | 35976 ft | 393 kts | 309° |
| 2026-04-22 10:41 | 25.39362 | 46.24583 | 36224 ft | 392 kts | 309° |
| 2026-04-22 10:41 | 25.41363 | 46.22524 | 36450 ft | 393 kts | 309° |
| 2026-04-22 10:42 | 25.43365 | 46.20461 | 36654 ft | 394 kts | 309° |
| 2026-04-22 10:42 | 25.45373 | 46.18391 | 36884 ft | 395 kts | 309° |
| 2026-04-22 10:42 | 25.47385 | 46.16319 | 37069 ft | 395 kts | 309° |
| 2026-04-22 10:42 | 25.49403 | 46.14240 | 37252 ft | 396 kts | 309° |
| 2026-04-22 10:43 | 25.51419 | 46.12164 | 37414 ft | 397 kts | 309° |
| 2026-04-22 10:43 | 25.53439 | 46.10079 | 37560 ft | 397 kts | 309° |
| 2026-04-22 10:43 | 25.55460 | 46.07990 | 37696 ft | 397 kts | 309° |
| 2026-04-22 10:43 | 25.57481 | 46.05903 | 37814 ft | 397 kts | 309° |
| 2026-04-22 10:44 | 25.59502 | 46.03812 | 37943 ft | 396 kts | 309° |
| 2026-04-22 10:44 | 25.61482 | 46.01772 | 38002 ft | 384 kts | 309° |
| 2026-04-22 10:44 | 25.63425 | 45.99766 | 37987 ft | 379 kts | 308° |
| 2026-04-22 10:44 | 25.65306 | 45.97818 | 37469 ft | 375 kts | 308° |
| 2026-04-22 10:45 | 25.67245 | 45.95804 | 36505 ft | 380 kts | 309° |
| 2026-04-22 10:45 | 25.69161 | 45.93813 | 35500 ft | 386 kts | 309° |
| 2026-04-22 10:45 | 25.71143 | 45.91757 | 34510 ft | 393 kts | 310° |
| 2026-04-22 10:45 | 25.73156 | 45.89667 | 34021 ft | 399 kts | 310° |
| 2026-04-22 10:46 | 25.75173 | 45.87576 | 33334 ft | 397 kts | 310° |
| 2026-04-22 10:46 | 25.77210 | 45.85462 | 32603 ft | 406 kts | 310° |
| 2026-04-22 10:46 | 25.79287 | 45.83297 | 32214 ft | 412 kts | 311° |
| 2026-04-22 10:46 | 25.81386 | 45.81119 | 32049 ft | 415 kts | 311° |
| 2026-04-22 10:47 | 25.83500 | 45.78928 | 31991 ft | 416 kts | 311° |
| 2026-04-22 10:47 | 25.87733 | 45.74530 | 31970 ft | 417 kts | 311° |
| 2026-04-22 10:48 | 25.91961 | 45.70123 | 31973 ft | 417 kts | 311° |
| 2026-04-22 10:48 | 25.96191 | 45.65712 | 31973 ft | 417 kts | 311° |
| 2026-04-22 10:49 | 26.00417 | 45.61298 | 31980 ft | 421 kts | 311° |
| 2026-04-22 10:49 | 26.04660 | 45.56865 | 31977 ft | 417 kts | 311° |
| 2026-04-22 10:50 | 26.08886 | 45.52448 | 31978 ft | 417 kts | 310° |
| 2026-04-22 10:50 | 26.13113 | 45.48020 | 31965 ft | 417 kts | 310° |
| 2026-04-22 10:51 | 26.17336 | 45.43596 | 31968 ft | 417 kts | 310° |
| 2026-04-22 10:51 | 26.21557 | 45.39166 | 31971 ft | 417 kts | 310° |
| 2026-04-22 10:52 | 26.25776 | 45.34736 | 31983 ft | 416 kts | 310° |
| 2026-04-22 10:52 | 26.29988 | 45.30311 | 31990 ft | 416 kts | 310° |
| 2026-04-22 10:53 | 26.34201 | 45.25894 | 31979 ft | 416 kts | 310° |
| 2026-04-22 10:53 | 26.38416 | 45.21474 | 31979 ft | 415 kts | 310° |
| 2026-04-22 10:54 | 26.42612 | 45.17065 | 31992 ft | 414 kts | 310° |
| 2026-04-22 10:54 | 26.46771 | 45.12696 | 31985 ft | 413 kts | 310° |
| 2026-04-22 10:55 | 26.50954 | 45.08297 | 31979 ft | 412 kts | 310° |
| 2026-04-22 10:55 | 26.55119 | 45.03904 | 31978 ft | 412 kts | 310° |
| 2026-04-22 10:56 | 26.59283 | 44.99512 | 32035 ft | 411 kts | 309° |
| 2026-04-22 10:56 | 26.63405 | 44.95167 | 31991 ft | 407 kts | 309° |
| 2026-04-22 10:57 | 26.67531 | 44.90810 | 31982 ft | 408 kts | 309° |
| 2026-04-22 10:57 | 26.71655 | 44.86457 | 31978 ft | 408 kts | 309° |
| 2026-04-22 10:58 | 26.75779 | 44.82090 | 31979 ft | 408 kts | 309° |
| 2026-04-22 10:58 | 26.79899 | 44.77720 | 31979 ft | 408 kts | 309° |
| 2026-04-22 10:59 | 26.84012 | 44.73344 | 31974 ft | 408 kts | 309° |
| 2026-04-22 10:59 | 26.88111 | 44.68945 | 31979 ft | 408 kts | 309° |
| 2026-04-22 11:00 | 26.92222 | 44.64551 | 31982 ft | 408 kts | 309° |
| 2026-04-22 11:00 | 26.95647 | 44.60909 | 31982 ft | 408 kts | 309° |
| 2026-04-22 11:01 | 26.99779 | 44.56534 | 31981 ft | 408 kts | 309° |
| 2026-04-22 11:01 | 27.03899 | 44.52145 | 31983 ft | 408 kts | 309° |
| 2026-04-22 11:02 | 27.08008 | 44.47749 | 31978 ft | 409 kts | 309° |
| 2026-04-22 11:02 | 27.12116 | 44.43341 | 31981 ft | 409 kts | 309° |
| 2026-04-22 11:03 | 27.16231 | 44.38932 | 31985 ft | 409 kts | 308° |
| 2026-04-22 11:03 | 27.20345 | 44.34522 | 31982 ft | 409 kts | 308° |
| 2026-04-22 11:04 | 27.24463 | 44.30108 | 31982 ft | 409 kts | 308° |
| 2026-04-22 11:04 | 27.28572 | 44.25696 | 31982 ft | 409 kts | 308° |
| 2026-04-22 11:05 | 27.32679 | 44.21275 | 31980 ft | 409 kts | 308° |
| 2026-04-22 11:05 | 27.36788 | 44.16851 | 31982 ft | 409 kts | 308° |
| 2026-04-22 11:06 | 27.40897 | 44.12426 | 31984 ft | 409 kts | 308° |
| 2026-04-22 11:06 | 27.45003 | 44.07994 | 31989 ft | 409 kts | 308° |
| 2026-04-22 11:07 | 27.49080 | 44.03585 | 31981 ft | 409 kts | 308° |
| 2026-04-22 11:07 | 27.53212 | 43.99120 | 31981 ft | 409 kts | 308° |
| 2026-04-22 11:08 | 27.57316 | 43.94685 | 31980 ft | 409 kts | 308° |
| 2026-04-22 11:08 | 27.61394 | 43.90269 | 31980 ft | 409 kts | 308° |
| 2026-04-22 11:09 | 27.65492 | 43.85818 | 31981 ft | 409 kts | 308° |
| 2026-04-22 11:09 | 27.69596 | 43.81365 | 31981 ft | 409 kts | 308° |
| 2026-04-22 11:10 | 27.73687 | 43.76899 | 31977 ft | 409 kts | 308° |
| 2026-04-22 11:10 | 27.77801 | 43.72397 | 31972 ft | 409 kts | 308° |
| 2026-04-22 11:11 | 27.81883 | 43.67966 | 31973 ft | 410 kts | 308° |
| 2026-04-22 11:11 | 27.85924 | 43.63399 | 31977 ft | 407 kts | 305° |
| 2026-04-22 11:12 | 27.89764 | 43.58756 | 31979 ft | 407 kts | 306° |
| 2026-04-22 11:12 | 27.93642 | 43.54085 | 31979 ft | 407 kts | 306° |
| 2026-04-22 11:13 | 27.97522 | 43.49417 | 31977 ft | 408 kts | 306° |
| 2026-04-22 11:13 | 28.01402 | 43.44766 | 31984 ft | 407 kts | 306° |
| 2026-04-22 11:14 | 28.05277 | 43.40078 | 31981 ft | 408 kts | 305° |
| 2026-04-22 11:14 | 28.09152 | 43.35393 | 31981 ft | 408 kts | 306° |
| 2026-04-22 11:15 | 28.13027 | 43.30705 | 31984 ft | 408 kts | 305° |
| 2026-04-22 11:15 | 28.16903 | 43.26004 | 31982 ft | 408 kts | 306° |
| 2026-04-22 11:16 | 28.20783 | 43.21296 | 31980 ft | 409 kts | 306° |
| 2026-04-22 11:16 | 28.24634 | 43.16612 | 31983 ft | 409 kts | 306° |
| 2026-04-22 11:17 | 28.28509 | 43.11896 | 31979 ft | 409 kts | 305° |
| 2026-04-22 11:17 | 28.32387 | 43.07169 | 31980 ft | 409 kts | 306° |
| 2026-04-22 11:18 | 28.36264 | 43.02441 | 31980 ft | 409 kts | 305° |
| 2026-04-22 11:18 | 28.40144 | 42.97702 | 31984 ft | 409 kts | 305° |
| 2026-04-22 11:19 | 28.44018 | 42.92965 | 31981 ft | 410 kts | 305° |
| 2026-04-22 11:19 | 28.47899 | 42.88211 | 31978 ft | 410 kts | 306° |
| 2026-04-22 11:20 | 28.51781 | 42.83461 | 31978 ft | 410 kts | 305° |
| 2026-04-22 11:20 | 28.55663 | 42.78698 | 31982 ft | 411 kts | 306° |
| 2026-04-22 11:21 | 28.59545 | 42.73931 | 31980 ft | 411 kts | 305° |
| 2026-04-22 11:21 | 28.63421 | 42.69156 | 31983 ft | 411 kts | 306° |
| 2026-04-22 11:22 | 28.67300 | 42.64384 | 31983 ft | 411 kts | 305° |
| 2026-04-22 11:22 | 28.71179 | 42.59604 | 31988 ft | 411 kts | 305° |
| 2026-04-22 11:23 | 28.75035 | 42.54803 | 31987 ft | 411 kts | 305° |
| 2026-04-22 11:23 | 28.78922 | 42.50020 | 31991 ft | 411 kts | 306° |
| 2026-04-22 11:24 | 28.82800 | 42.45236 | 31987 ft | 411 kts | 305° |
| 2026-04-22 11:24 | 28.86663 | 42.40413 | 31986 ft | 411 kts | 305° |
| 2026-04-22 11:25 | 28.90538 | 42.35603 | 31991 ft | 412 kts | 305° |
| 2026-04-22 11:25 | 28.94424 | 42.30800 | 31986 ft | 412 kts | 305° |
| 2026-04-22 11:26 | 28.98304 | 42.25986 | 31988 ft | 412 kts | 305° |
| 2026-04-22 11:26 | 29.02177 | 42.21152 | 31993 ft | 412 kts | 305° |
| 2026-04-22 11:27 | 29.06054 | 42.16323 | 31993 ft | 413 kts | 305° |
| 2026-04-22 11:27 | 29.09930 | 42.11494 | 31997 ft | 413 kts | 305° |
| 2026-04-22 11:28 | 29.13815 | 42.06656 | 31996 ft | 413 kts | 305° |
| 2026-04-22 11:28 | 29.17691 | 42.01811 | 31998 ft | 413 kts | 305° |
| 2026-04-22 11:29 | 29.21572 | 41.96952 | 31999 ft | 413 kts | 305° |
| 2026-04-22 11:29 | 29.25445 | 41.92096 | 31996 ft | 413 kts | 305° |
| 2026-04-22 11:30 | 29.29316 | 41.87235 | 31996 ft | 413 kts | 305° |
| 2026-04-22 11:30 | 29.33185 | 41.82368 | 31999 ft | 413 kts | 305° |
| 2026-04-22 11:31 | 29.37063 | 41.77490 | 31998 ft | 414 kts | 305° |
| 2026-04-22 11:31 | 29.40915 | 41.72617 | 32000 ft | 413 kts | 304° |
| 2026-04-22 11:32 | 29.44785 | 41.67716 | 32007 ft | 414 kts | 305° |
| 2026-04-22 11:32 | 29.48667 | 41.62837 | 32002 ft | 414 kts | 305° |
| 2026-04-22 11:33 | 29.52545 | 41.57945 | 32004 ft | 414 kts | 305° |
| 2026-04-22 11:33 | 29.56387 | 41.53082 | 32011 ft | 414 kts | 305° |
| 2026-04-22 11:34 | 29.60262 | 41.48172 | 32013 ft | 415 kts | 305° |
| 2026-04-22 11:34 | 29.64133 | 41.43258 | 32016 ft | 415 kts | 305° |
| 2026-04-22 11:35 | 29.68005 | 41.38336 | 32014 ft | 415 kts | 305° |
| 2026-04-22 11:35 | 29.71877 | 41.33408 | 32016 ft | 415 kts | 305° |
| 2026-04-22 11:36 | 29.75998 | 41.28684 | 32010 ft | 421 kts | 310° |
| 2026-04-22 11:36 | 29.80384 | 41.24203 | 32011 ft | 422 kts | 311° |
| 2026-04-22 11:37 | 29.84763 | 41.19708 | 32008 ft | 422 kts | 311° |
| 2026-04-22 11:37 | 29.89142 | 41.15210 | 32014 ft | 422 kts | 311° |
| 2026-04-22 11:38 | 29.93520 | 41.10700 | 32014 ft | 422 kts | 311° |
| 2026-04-22 11:38 | 30.00084 | 41.03940 | 32016 ft | 422 kts | 311° |
| 2026-04-22 11:39 | 30.04462 | 40.99419 | 32012 ft | 422 kts | 310° |
| 2026-04-22 11:39 | 30.08827 | 40.94883 | 32011 ft | 422 kts | 311° |
| 2026-04-22 11:40 | 30.13204 | 40.90349 | 31989 ft | 423 kts | 311° |
| 2026-04-22 11:40 | 30.17569 | 40.85817 | 31983 ft | 422 kts | 310° |
| 2026-04-22 11:41 | 30.21949 | 40.81269 | 31981 ft | 422 kts | 311° |
| 2026-04-22 11:41 | 30.26333 | 40.76744 | 31979 ft | 423 kts | 311° |
| 2026-04-22 11:42 | 30.30711 | 40.72208 | 31978 ft | 422 kts | 310° |
| 2026-04-22 11:42 | 30.35078 | 40.67660 | 31980 ft | 423 kts | 311° |
| 2026-04-22 11:43 | 30.39449 | 40.63109 | 31981 ft | 423 kts | 311° |
| 2026-04-22 11:43 | 30.43855 | 40.58578 | 31978 ft | 423 kts | 311° |
| 2026-04-22 11:44 | 30.48260 | 40.54044 | 31978 ft | 424 kts | 311° |
| 2026-04-22 11:44 | 30.51001 | 40.51233 | 31982 ft | 423 kts | 311° |
| 2026-04-22 11:45 | 30.55435 | 40.46727 | 31983 ft | 424 kts | 311° |
| 2026-04-22 11:45 | 30.59106 | 40.42967 | 31984 ft | 424 kts | 311° |
| 2026-04-22 11:46 | 30.63521 | 40.38428 | 31991 ft | 424 kts | 311° |
| 2026-04-22 11:46 | 30.67931 | 40.33885 | 31989 ft | 424 kts | 311° |
| 2026-04-22 11:47 | 30.72342 | 40.29335 | 31997 ft | 424 kts | 311° |
| 2026-04-22 11:47 | 30.76757 | 40.24779 | 31994 ft | 424 kts | 311° |
| 2026-04-22 11:48 | 30.81169 | 40.20218 | 31998 ft | 424 kts | 311° |
| 2026-04-22 11:48 | 30.85578 | 40.15650 | 32001 ft | 425 kts | 311° |
| 2026-04-22 11:49 | 30.89985 | 40.11073 | 32001 ft | 425 kts | 311° |
| 2026-04-22 11:49 | 30.94393 | 40.06483 | 32004 ft | 425 kts | 311° |
| 2026-04-22 11:50 | 30.98802 | 40.01895 | 32008 ft | 425 kts | 311° |
| 2026-04-22 11:50 | 31.00263 | 40.00377 | 32003 ft | 425 kts | 311° |
| 2026-04-22 11:51 | 31.01946 | 39.98632 | 32007 ft | 425 kts | 311° |
| 2026-04-22 11:52 | 31.06371 | 39.94044 | 32003 ft | 425 kts | 311° |
| 2026-04-22 11:52 | 31.10782 | 39.89453 | 32009 ft | 425 kts | 311° |
| 2026-04-22 11:53 | 31.15194 | 39.84845 | 32009 ft | 425 kts | 311° |
| 2026-04-22 11:53 | 31.19598 | 39.80230 | 32005 ft | 426 kts | 311° |
| 2026-04-22 11:54 | 31.24014 | 39.75615 | 32020 ft | 426 kts | 311° |
| 2026-04-22 11:54 | 31.28425 | 39.70995 | 32010 ft | 426 kts | 311° |
| 2026-04-22 11:55 | 31.32811 | 39.66392 | 32015 ft | 426 kts | 311° |
| 2026-04-22 11:55 | 31.37221 | 39.61757 | 32017 ft | 426 kts | 311° |
| 2026-04-22 11:56 | 31.41623 | 39.57116 | 32017 ft | 426 kts | 311° |
| 2026-04-22 11:56 | 31.46278 | 39.52736 | 32018 ft | 431 kts | 316° |
| 2026-04-22 11:57 | 31.51084 | 39.48535 | 32018 ft | 431 kts | 316° |
| 2026-04-22 11:57 | 31.55886 | 39.44331 | 32017 ft | 431 kts | 316° |
| 2026-04-22 11:58 | 31.60684 | 39.40125 | 32017 ft | 431 kts | 317° |
| 2026-04-22 11:58 | 31.65473 | 39.35916 | 32016 ft | 431 kts | 317° |
| 2026-04-22 11:59 | 31.70275 | 39.31688 | 32024 ft | 431 kts | 316° |
| 2026-04-22 11:59 | 31.75066 | 39.27464 | 32028 ft | 431 kts | 317° |
| 2026-04-22 12:00 | 31.79858 | 39.23229 | 32013 ft | 431 kts | 316° |
| 2026-04-22 12:00 | 31.84641 | 39.18998 | 32019 ft | 431 kts | 317° |
| 2026-04-22 12:01 | 31.89435 | 39.14769 | 32020 ft | 431 kts | 317° |
| 2026-04-22 12:01 | 31.94218 | 39.10530 | 32010 ft | 430 kts | 317° |
| 2026-04-22 12:02 | 31.98998 | 39.06282 | 32015 ft | 430 kts | 317° |
| 2026-04-22 12:02 | 32.03954 | 39.02278 | 32011 ft | 438 kts | 326° |
| 2026-04-22 12:03 | 32.09410 | 38.99053 | 32014 ft | 439 kts | 327° |
| 2026-04-22 12:03 | 32.13313 | 38.96775 | 32013 ft | 407 kts | 326° |
| 2026-04-22 12:04 | 32.15679 | 38.95267 | 32313 ft | 368 kts | 322° |
| 2026-04-22 12:04 | 32.17829 | 38.93821 | 32260 ft | 345 kts | 322° |
| 2026-04-22 12:04 | 32.19863 | 38.92482 | 31731 ft | 336 kts | 322° |
| 2026-04-22 12:04 | 32.21869 | 38.91139 | 31328 ft | 327 kts | 323° |
| 2026-04-22 12:05 | 32.23850 | 38.89904 | 31184 ft | 323 kts | 324° |
| 2026-04-22 12:05 | 32.25834 | 38.88567 | 31208 ft | 336 kts | 324° |
| 2026-04-22 12:05 | 32.28044 | 38.87422 | 31309 ft | 355 kts | 331° |
| 2026-04-22 12:05 | 32.30379 | 38.86345 | 31431 ft | 365 kts | 330° |
| 2026-04-22 12:06 | 32.32731 | 38.85147 | 31544 ft | 373 kts | 328° |
| 2026-04-22 12:06 | 32.35114 | 38.83826 | 31667 ft | 382 kts | 327° |
| 2026-04-22 12:06 | 32.37532 | 38.82425 | 31800 ft | 392 kts | 327° |
| 2026-04-22 12:06 | 32.40000 | 38.80971 | 31923 ft | 401 kts | 327° |
| 2026-04-22 12:07 | 32.45122 | 38.77934 | 32032 ft | 423 kts | 327° |
| 2026-04-22 12:07 | 32.47791 | 38.76344 | 32029 ft | 435 kts | 327° |
| 2026-04-22 12:07 | 32.50511 | 38.74723 | 32110 ft | 439 kts | 327° |
| 2026-04-22 12:08 | 32.55968 | 38.71482 | 31983 ft | 438 kts | 327° |
| 2026-04-22 12:08 | 32.61416 | 38.68224 | 31986 ft | 439 kts | 327° |
| 2026-04-22 12:09 | 32.66870 | 38.64970 | 31992 ft | 439 kts | 327° |
| 2026-04-22 12:09 | 32.72317 | 38.61708 | 31989 ft | 439 kts | 327° |
| 2026-04-22 12:10 | 32.77773 | 38.58441 | 31983 ft | 439 kts | 327° |
| 2026-04-22 12:10 | 32.83210 | 38.55160 | 31982 ft | 438 kts | 327° |
| 2026-04-22 12:11 | 32.88612 | 38.51912 | 31979 ft | 438 kts | 327° |
| 2026-04-22 12:11 | 32.94083 | 38.48610 | 31983 ft | 438 kts | 327° |
| 2026-04-22 12:12 | 32.99520 | 38.45335 | 31975 ft | 438 kts | 327° |
| 2026-04-22 12:12 | 33.04956 | 38.42062 | 31967 ft | 438 kts | 327° |
| 2026-04-22 12:13 | 33.10353 | 38.38808 | 31962 ft | 438 kts | 327° |
| 2026-04-22 12:13 | 33.15787 | 38.35533 | 31967 ft | 437 kts | 327° |
| 2026-04-22 12:14 | 33.21220 | 38.32245 | 31972 ft | 437 kts | 327° |
| 2026-04-22 12:14 | 33.26641 | 38.28945 | 31962 ft | 437 kts | 327° |
| 2026-04-22 12:15 | 33.32054 | 38.25649 | 31964 ft | 437 kts | 327° |
| 2026-04-22 12:15 | 33.37469 | 38.22335 | 31962 ft | 437 kts | 327° |
| 2026-04-22 12:16 | 33.42876 | 38.19025 | 31972 ft | 437 kts | 327° |
| 2026-04-22 12:16 | 33.48293 | 38.15718 | 31961 ft | 437 kts | 327° |
| 2026-04-22 12:17 | 33.53721 | 38.12425 | 31960 ft | 437 kts | 327° |
| 2026-04-22 12:17 | 33.59148 | 38.09132 | 31960 ft | 437 kts | 327° |
| 2026-04-22 12:18 | 33.64570 | 38.05830 | 31962 ft | 437 kts | 327° |
| 2026-04-22 12:18 | 33.69998 | 38.02521 | 31960 ft | 437 kts | 327° |
| 2026-04-22 12:19 | 33.75421 | 37.99209 | 31959 ft | 437 kts | 327° |
| 2026-04-22 12:19 | 33.80850 | 37.95890 | 31960 ft | 438 kts | 327° |
| 2026-04-22 12:20 | 33.86086 | 37.92252 | 31957 ft | 430 kts | 317° |
| 2026-04-22 12:20 | 33.88219 | 37.89789 | 31955 ft | 423 kts | 306° |
| 2026-04-22 12:20 | 33.89914 | 37.86932 | 31962 ft | 418 kts | 298° |
| 2026-04-22 12:21 | 33.92989 | 37.80993 | 31955 ft | 418 kts | 298° |
| 2026-04-22 12:21 | 33.96078 | 37.75041 | 31955 ft | 419 kts | 298° |
| 2026-04-22 12:22 | 33.99169 | 37.69103 | 31957 ft | 419 kts | 298° |
| 2026-04-22 12:22 | 34.02253 | 37.63194 | 31959 ft | 419 kts | 298° |
| 2026-04-22 12:23 | 34.05360 | 37.57250 | 31964 ft | 419 kts | 298° |
| 2026-04-22 12:23 | 34.08458 | 37.51293 | 31962 ft | 419 kts | 298° |
| 2026-04-22 12:24 | 34.11547 | 37.45331 | 31969 ft | 419 kts | 298° |
| 2026-04-22 12:24 | 34.14639 | 37.39366 | 31969 ft | 419 kts | 298° |
| 2026-04-22 12:25 | 34.17727 | 37.33395 | 31964 ft | 419 kts | 298° |
| 2026-04-22 12:25 | 34.20609 | 37.27308 | 31961 ft | 411 kts | 289° |
| 2026-04-22 12:26 | 34.21831 | 37.20611 | 31972 ft | 409 kts | 274° |
| 2026-04-22 12:26 | 34.22330 | 37.13857 | 31885 ft | 392 kts | 273° |
| 2026-04-22 12:27 | 34.22574 | 37.10610 | 31311 ft | 385 kts | 274° |
| 2026-04-22 12:27 | 34.22822 | 37.07390 | 30501 ft | 385 kts | 274° |
| 2026-04-22 12:27 | 34.23072 | 37.04166 | 29520 ft | 387 kts | 274° |
| 2026-04-22 12:27 | 34.23322 | 37.00925 | 28588 ft | 387 kts | 274° |
| 2026-04-22 12:28 | 34.23571 | 36.97702 | 27769 ft | 384 kts | 274° |
| 2026-04-22 12:28 | 34.23820 | 36.94503 | 26996 ft | 381 kts | 274° |
| 2026-04-22 12:28 | 34.24065 | 36.91326 | 26245 ft | 378 kts | 274° |
| 2026-04-22 12:28 | 34.24306 | 36.88175 | 25518 ft | 375 kts | 274° |
| 2026-04-22 12:29 | 34.24543 | 36.85044 | 24817 ft | 374 kts | 274° |
| 2026-04-22 12:29 | 34.24781 | 36.81915 | 24309 ft | 373 kts | 274° |
| 2026-04-22 12:29 | 34.25015 | 36.78850 | 24074 ft | 359 kts | 274° |
| 2026-04-22 12:29 | 34.25237 | 36.75909 | 23989 ft | 347 kts | 274° |
| 2026-04-22 12:30 | 34.25676 | 36.70107 | 23975 ft | 346 kts | 274° |
| 2026-04-22 12:30 | 34.25893 | 36.67206 | 23977 ft | 347 kts | 274° |
| 2026-04-22 12:30 | 34.26109 | 36.64302 | 23979 ft | 346 kts | 274° |
| 2026-04-22 12:31 | 34.26250 | 36.62387 | 23976 ft | 346 kts | 274° |
| 2026-04-22 12:31 | 34.26527 | 36.58545 | 23996 ft | 346 kts | 273° |
| 2026-04-22 12:31 | 34.26664 | 36.55656 | 23523 ft | 344 kts | 272° |
| 2026-04-22 12:31 | 34.26773 | 36.52748 | 22644 ft | 348 kts | 272° |
| 2026-04-22 12:32 | 34.26845 | 36.50774 | 22105 ft | 349 kts | 272° |
| 2026-04-22 12:32 | 34.27096 | 36.44006 | 20618 ft | 344 kts | 272° |
| 2026-04-22 12:32 | 34.27204 | 36.41136 | 20020 ft | 341 kts | 272° |
| 2026-04-22 12:33 | 34.27277 | 36.39204 | 19624 ft | 339 kts | 272° |
| 2026-04-22 12:33 | 34.27416 | 36.35453 | 18866 ft | 336 kts | 272° |
| 2026-04-22 12:33 | 34.27485 | 36.33553 | 18491 ft | 334 kts | 272° |
| 2026-04-22 12:33 | 34.27588 | 36.30762 | 17869 ft | 331 kts | 272° |
| 2026-04-22 12:34 | 34.27692 | 36.27990 | 17233 ft | 328 kts | 272° |
| 2026-04-22 12:34 | 34.27793 | 36.25240 | 16616 ft | 326 kts | 272° |
| 2026-04-22 12:34 | 34.27892 | 36.22512 | 16018 ft | 324 kts | 272° |
| 2026-04-22 12:34 | 34.27992 | 36.19801 | 15435 ft | 321 kts | 272° |
| 2026-04-22 12:35 | 34.28087 | 36.17112 | 14859 ft | 319 kts | 272° |
| 2026-04-22 12:35 | 34.28185 | 36.14440 | 14306 ft | 317 kts | 272° |
| 2026-04-22 12:35 | 34.28280 | 36.11793 | 13721 ft | 316 kts | 272° |
| 2026-04-22 12:35 | 34.28371 | 36.09141 | 13215 ft | 315 kts | 272° |
| 2026-04-22 12:36 | 34.28462 | 36.06508 | 13033 ft | 308 kts | 271° |
| 2026-04-22 12:36 | 34.28551 | 36.03982 | 12887 ft | 293 kts | 272° |
| 2026-04-22 12:36 | 34.28635 | 36.01580 | 12512 ft | 288 kts | 271° |
| 2026-04-22 12:36 | 34.28719 | 35.99171 | 11994 ft | 287 kts | 272° |
| 2026-04-22 12:37 | 34.28826 | 35.96762 | 11512 ft | 287 kts | 272° |
| 2026-04-22 12:37 | 34.28940 | 35.94353 | 11005 ft | 287 kts | 272° |
| 2026-04-22 12:37 | 34.29053 | 35.91950 | 10558 ft | 285 kts | 271° |
| 2026-04-22 12:37 | 34.29163 | 35.89556 | 10156 ft | 284 kts | 271° |
| 2026-04-22 12:38 | 34.29271 | 35.87168 | 10010 ft | 285 kts | 271° |
| 2026-04-22 12:38 | 34.29379 | 35.84771 | 9993 ft | 285 kts | 271° |
| 2026-04-22 12:38 | 34.29484 | 35.82372 | 9999 ft | 285 kts | 271° |
| 2026-04-22 12:38 | 34.29589 | 35.80042 | 10001 ft | 274 kts | 271° |
| 2026-04-22 12:39 | 34.29690 | 35.77747 | 10005 ft | 273 kts | 271° |
| 2026-04-22 12:39 | 34.29891 | 35.73235 | 9872 ft | 260 kts | 272° |
| 2026-04-22 12:39 | 34.29979 | 35.71070 | 9509 ft | 256 kts | 269° |
| 2026-04-22 12:40 | 34.29670 | 35.68975 | 9055 ft | 253 kts | 247° |
| 2026-04-22 12:40 | 34.28894 | 35.67076 | 8638 ft | 252 kts | 242° |
| 2026-04-22 12:40 | 34.28071 | 35.65200 | 8234 ft | 252 kts | 242° |
| 2026-04-22 12:40 | 34.27257 | 35.63334 | 7823 ft | 251 kts | 242° |
| 2026-04-22 12:41 | 34.26452 | 35.61468 | 7431 ft | 250 kts | 242° |
| 2026-04-22 12:41 | 34.25651 | 35.59603 | 7024 ft | 250 kts | 242° |
| 2026-04-22 12:41 | 34.24867 | 35.57737 | 6669 ft | 248 kts | 243° |
| 2026-04-22 12:41 | 34.24094 | 35.55887 | 6294 ft | 246 kts | 242° |
| 2026-04-22 12:42 | 34.23319 | 35.54044 | 5905 ft | 245 kts | 242° |
| 2026-04-22 12:42 | 34.22543 | 35.52211 | 5507 ft | 244 kts | 243° |
| 2026-04-22 12:42 | 34.21788 | 35.50425 | 5168 ft | 242 kts | 243° |
| 2026-04-22 12:42 | 34.21012 | 35.48594 | 4794 ft | 240 kts | 242° |
| 2026-04-22 12:43 | 34.20245 | 35.46791 | 4327 ft | 243 kts | 243° |
| 2026-04-22 12:43 | 34.19476 | 35.44984 | 4046 ft | 238 kts | 243° |
| 2026-04-22 12:43 | 34.18739 | 35.43256 | 3976 ft | 226 kts | 243° |
| 2026-04-22 12:43 | 34.18022 | 35.41572 | 3674 ft | 228 kts | 243° |
| 2026-04-22 12:44 | 34.17197 | 35.39930 | 3442 ft | 230 kts | 228° |
| 2026-04-22 12:44 | 34.15842 | 35.38948 | 3193 ft | 230 kts | 194° |
| 2026-04-22 12:44 | 34.14256 | 35.39037 | 3014 ft | 232 kts | 166° |
| 2026-04-22 12:44 | 34.12707 | 35.39585 | 2993 ft | 232 kts | 164° |
| 2026-04-22 12:45 | 34.11152 | 35.40120 | 2996 ft | 232 kts | 165° |
| 2026-04-22 12:45 | 34.09596 | 35.40628 | 2959 ft | 230 kts | 166° |
| 2026-04-22 12:45 | 34.08057 | 35.41105 | 2641 ft | 228 kts | 166° |
| 2026-04-22 12:45 | 34.06539 | 35.41568 | 2290 ft | 228 kts | 166° |
| 2026-04-22 12:46 | 34.05002 | 35.42012 | 2032 ft | 226 kts | 167° |
| 2026-04-22 12:46 | 34.03520 | 35.42427 | 1982 ft | 211 kts | 167° |
| 2026-04-22 12:46 | 34.02145 | 35.42817 | 1977 ft | 194 kts | 167° |
| 2026-04-22 12:46 | 34.00873 | 35.43180 | 1979 ft | 188 kts | 167° |
| 2026-04-22 12:47 | 33.99600 | 35.43537 | 2047 ft | 188 kts | 167° |
| 2026-04-22 12:47 | 33.98320 | 35.43877 | 2034 ft | 188 kts | 172° |
| 2026-04-22 12:47 | 33.97020 | 35.43907 | 2234 ft | 188 kts | 176° |
| 2026-04-22 12:47 | 33.95740 | 35.44208 | 2164 ft | 183 kts | 165° |
| 2026-04-22 12:48 | 33.94559 | 35.44705 | 1924 ft | 178 kts | 158° |
| 2026-04-22 12:48 | 33.93437 | 35.45225 | 1784 ft | 166 kts | 160° |
| 2026-04-22 12:48 | 33.92421 | 35.45605 | 1800 ft | 146 kts | 163° |
| 2026-04-22 12:48 | 33.91421 | 35.45832 | 1764 ft | 140 kts | 172° |
| 2026-04-22 12:49 | 33.90473 | 35.45995 | 1547 ft | 138 kts | 168° |
| 2026-04-22 12:49 | 33.89542 | 35.46318 | 1219 ft | 142 kts | 162° |
| 2026-04-22 12:49 | 33.88599 | 35.46658 | 954 ft | 141 kts | 167° |
| 2026-04-22 12:49 | 33.87673 | 35.46873 | 830 ft | 129 kts | 170° |
| 2026-04-22 12:50 | 33.86778 | 35.47108 | 742 ft | 134 kts | 167° |
| 2026-04-22 12:50 | 33.85855 | 35.47386 | 514 ft | 140 kts | 167° |
| 2026-04-22 12:50 | 33.84918 | 35.47632 | 300 ft | 138 kts | 168° |
| 2026-04-22 12:50 | 33.83988 | 35.47893 | 112 ft | 137 kts | 168° |
| 2026-04-22 12:51 | 33.83088 | 35.48145 | 40 ft | 121 kts | 166° |
| 2026-04-22 12:51 | 33.82446 | 35.48324 | 45 ft | 71 kts | 167° |
| 2026-04-22 12:51 | 33.82123 | 35.48414 | 44 ft | 37 kts | 167° |
| 2026-04-22 12:51 | 33.81927 | 35.48527 | 41 ft | 27 kts | 136° |
| 2026-04-22 12:52 | 33.81843 | 35.48624 | 41 ft | 13 kts | 137° |
| 2026-04-22 12:52 | 33.81769 | 35.48707 | 43 ft | 16 kts | 133° |
| 2026-04-22 12:52 | 33.81735 | 35.48839 | 38 ft | 18 kts | 104° |
| 2026-04-22 12:52 | 33.81705 | 35.48984 | 38 ft | 14 kts | 88° |
| 2026-04-22 12:53 | 33.81764 | 35.49056 | 45 ft | 14 kts | 37° |
| 2026-04-22 12:53 | 33.81855 | 35.49130 | 42 ft | 17 kts | 33° |
| 2026-04-22 12:53 | 33.81962 | 35.49218 | 48 ft | 20 kts | 36° |
| 2026-04-22 12:53 | 33.82081 | 35.49321 | 41 ft | 22 kts | 35° |
| 2026-04-22 12:54 | 33.82208 | 35.49428 | 44 ft | 23 kts | 35° |
| 2026-04-22 12:54 | 33.82252 | 35.49465 | 45 ft | 4 kts | 34° |
| 2026-04-22 12:54 | 33.82282 | 35.49458 | 42 ft | 5 kts | 330° |
| 2026-04-22 12:54 | 33.82303 | 35.49437 | 43 ft | 0 kts | 333° |
| 2026-04-22 12:55 | 33.82309 | 35.49430 | 42 ft | 3 kts | 308° |
| 2026-04-22 12:55 | 33.82310 | 35.49428 | 44 ft | 1 kts | 302° |
| 2026-04-22 12:55 | 33.82315 | 35.49420 | 44 ft | 0 kts | 309° |
| 2026-04-22 12:55 | 33.82317 | 35.49417 | 44 ft | 0 kts | 310° |